Time;durP1;ratioP1;P1;durP2;ratioP2;P2;SDS_P1;SDS_P2;PMS_P1;PMS_P2;Temp;Humidity;BMP_temperature;BMP_pressure;BME280_temperature;BME280_humidity;BME280_pressure;Samples;Min_cycle;Max_cycle;Signal;HPM_P1;HPM_P2
2021/11/26 00:00:43;;;;;;;44.05;29.45;;;;;;;3.30;74.70;99639.09;5039125;28;20407;-81
2021/11/26 00:03:08;;;;;;;42.90;28.23;;;;;;;3.31;74.80;99638.06;5036373;28;20405;-81
2021/11/26 00:05:34;;;;;;;44.13;28.23;;;;;;;3.32;74.95;99634.38;5040957;28;20395;-81
2021/11/26 00:07:59;;;;;;;37.73;25.40;;;;;;;3.31;75.17;99624.69;5037972;28;21032;-81
2021/11/26 00:10:24;;;;;;;43.27;26.13;;;;;;;3.34;75.18;99623.41;5040333;28;20440;-81
2021/11/26 00:12:57;;;;;;;39.67;27.00;;;;;;;3.32;75.33;99625.50;5050414;28;20847;-82
2021/11/26 00:15:36;;;;;;;42.20;27.40;;;;;;;3.30;75.43;99615.00;5034023;28;20477;-81
2021/11/26 00:18:06;;;;;;;42.65;28.23;;;;;;;3.25;75.64;99620.22;5036486;28;20460;-81
2021/11/26 00:20:33;;;;;;;45.17;28.65;;;;;;;3.21;75.78;99616.31;5042686;28;20409;-81
2021/11/26 00:22:58;;;;;;;44.17;28.60;;;;;;;3.12;75.96;99606.91;5044140;28;20439;-81
2021/11/26 00:25:24;;;;;;;46.83;29.17;;;;;;;3.11;76.11;99605.28;5043865;28;20442;-81
2021/11/26 00:27:51;;;;;;;44.17;28.37;;;;;;;3.11;76.13;99602.59;5040291;28;20457;-81
2021/11/26 00:30:17;;;;;;;46.83;30.30;;;;;;;3.06;75.90;99603.22;5053557;28;20415;-82
2021/11/26 00:32:42;;;;;;;49.20;30.88;;;;;;;3.04;75.87;99599.13;5033757;28;20422;-81
2021/11/26 00:35:08;;;;;;;45.80;30.77;;;;;;;3.06;75.89;99591.72;5049000;28;20916;-81
2021/11/26 00:37:33;;;;;;;51.25;31.70;;;;;;;3.10;75.91;99587.56;5048956;28;20441;-82
2021/11/26 00:39:58;;;;;;;50.27;31.13;;;;;;;3.14;76.14;99586.09;5037850;28;20421;-81
2021/11/26 00:42:23;;;;;;;52.03;30.60;;;;;;;3.13;76.08;99585.28;5045915;28;20494;-81
2021/11/26 00:44:49;;;;;;;47.55;30.17;;;;;;;3.13;76.40;99577.25;5032160;28;20878;-81
2021/11/26 00:47:14;;;;;;;46.23;30.10;;;;;;;3.18;76.27;99579.28;5035568;28;20742;-81
2021/11/26 00:49:39;;;;;;;50.13;31.40;;;;;;;3.22;76.35;99582.34;5036430;28;20470;-81
2021/11/26 00:52:05;;;;;;;50.40;31.50;;;;;;;3.22;76.17;99585.84;5033631;28;20382;-82
2021/11/26 00:54:31;;;;;;;48.35;31.65;;;;;;;3.22;76.29;99585.00;5039845;28;20398;-82
2021/11/26 00:56:57;;;;;;;51.37;31.63;;;;;;;3.20;76.60;99585.22;5034508;28;20399;-82
2021/11/26 00:59:22;;;;;;;53.30;32.03;;;;;;;3.14;76.75;99586.91;5047108;28;20818;-82
2021/11/26 01:01:47;;;;;;;48.03;31.43;;;;;;;3.18;75.92;99571.25;5038217;28;20509;-81
2021/11/26 01:04:13;;;;;;;56.00;33.50;;;;;;;3.18;75.25;99565.88;5032213;28;20411;-81
2021/11/26 01:06:38;;;;;;;51.57;31.70;;;;;;;3.20;75.31;99568.31;5033489;28;20406;-81
2021/11/26 01:09:06;;;;;;;53.20;33.87;;;;;;;3.23;75.70;99573.28;5049322;28;20964;-82
2021/11/26 01:11:32;;;;;;;51.03;31.60;;;;;;;3.20;76.06;99573.69;5040783;28;20775;-81
2021/11/26 01:13:57;;;;;;;52.60;32.37;;;;;;;3.21;75.37;99569.97;5037769;28;20418;-81
2021/11/26 01:16:22;;;;;;;51.27;30.83;;;;;;;3.20;75.23;99576.34;5036116;28;20499;-81
2021/11/26 01:18:48;;;;;;;49.23;30.90;;;;;;;3.23;75.54;99586.66;5035247;28;20784;-82
2021/11/26 01:21:13;;;;;;;47.80;31.83;;;;;;;3.29;75.61;99573.22;5046224;28;20391;-81
2021/11/26 01:23:40;;;;;;;49.40;30.77;;;;;;;3.34;75.19;99580.56;5034351;28;20395;-81
2021/11/26 01:26:06;;;;;;;51.38;33.10;;;;;;;3.35;75.46;99566.97;5034411;28;20423;-82
2021/11/26 01:28:32;;;;;;;51.55;30.88;;;;;;;3.30;75.14;99574.84;5049112;28;20472;-82
2021/11/26 01:30:58;;;;;;;47.88;31.55;;;;;;;3.19;75.67;99580.91;5048229;28;20488;-81
2021/11/26 01:33:23;;;;;;;49.37;30.13;;;;;;;3.13;76.18;99568.38;5042984;28;20395;-81
2021/11/26 01:35:54;;;;;;;48.40;30.97;;;;;;;3.12;76.32;99570.25;5045899;28;20410;-82
2021/11/26 01:38:21;;;;;;;46.22;29.95;;;;;;;3.09;76.34;99561.84;5036252;28;20423;-82
2021/11/26 01:40:47;;;;;;;49.75;30.30;;;;;;;3.00;76.41;99555.09;5036401;28;20496;-81
2021/11/26 01:43:15;;;;;;;47.95;30.48;;;;;;;2.97;76.54;99566.25;5044699;28;20478;-82
2021/11/26 01:45:44;;;;;;;47.63;29.88;;;;;;;3.05;76.48;99557.97;5045358;28;20432;-81
2021/11/26 01:48:09;;;;;;;48.22;30.58;;;;;;;3.12;76.45;99556.06;5034381;28;20414;-81
2021/11/26 01:50:35;;;;;;;48.37;30.80;;;;;;;3.19;76.06;99547.97;5031274;28;20403;-81
2021/11/26 01:53:00;;;;;;;44.03;29.50;;;;;;;3.22;75.33;99537.66;5040222;28;20406;-81
2021/11/26 01:55:26;;;;;;;51.23;31.93;;;;;;;3.20;74.95;99530.84;5038956;28;20434;-81
2021/11/26 01:57:51;;;;;;;48.07;30.23;;;;;;;3.16;74.75;99530.50;5032738;28;20410;-81
2021/11/26 02:00:22;;;;;;;51.03;30.30;;;;;;;3.21;75.06;99519.94;5047077;28;20407;-81
2021/11/26 02:02:48;;;;;;;50.10;31.43;;;;;;;3.20;74.95;99522.81;5035992;28;20402;-81
2021/11/26 02:05:13;;;;;;;49.70;31.00;;;;;;;3.19;74.64;99524.69;5030892;28;20395;-81
2021/11/26 02:07:38;;;;;;;51.33;31.20;;;;;;;3.23;75.11;99520.53;5042933;28;20497;-81
2021/11/26 02:10:05;;;;;;;52.13;31.77;;;;;;;3.23;74.90;99515.16;5042971;28;20491;-81
2021/11/26 02:12:31;;;;;;;51.40;31.25;;;;;;;3.24;74.59;99513.31;5031293;28;20506;-81
2021/11/26 02:14:58;;;;;;;47.05;29.98;;;;;;;3.26;74.66;99514.72;5047802;28;20841;-81
2021/11/26 02:17:23;;;;;;;49.20;29.65;;;;;;;3.20;74.75;99504.06;5043635;28;20422;-81
2021/11/26 02:19:57;;;;;;;48.17;30.00;;;;;;;3.20;74.32;99501.41;5040116;28;20809;-81
2021/11/26 02:22:22;;;;;;;47.88;30.33;;;;;;;3.16;74.74;99495.69;5038422;28;20405;-81
2021/11/26 02:24:48;;;;;;;46.60;29.83;;;;;;;3.16;74.98;99487.66;5030853;28;20435;-81
2021/11/26 02:27:18;;;;;;;48.53;30.05;;;;;;;3.19;75.09;99483.72;5031704;28;20558;-81
2021/11/26 02:29:44;;;;;;;46.85;29.27;;;;;;;3.18;74.85;99480.22;5032816;28;20924;-81
2021/11/26 02:32:09;;;;;;;49.07;30.13;;;;;;;3.20;74.43;99482.66;5036902;28;20443;-81
2021/11/26 02:34:35;;;;;;;48.40;30.40;;;;;;;3.20;75.11;99486.16;5033319;28;20399;-81
2021/11/26 02:37:00;;;;;;;46.33;28.77;;;;;;;3.11;75.02;99498.19;5035827;28;20403;-81
2021/11/26 02:39:25;;;;;;;43.83;28.23;;;;;;;3.05;75.55;99481.16;5034404;28;20413;-81
2021/11/26 02:41:51;;;;;;;46.80;29.45;;;;;;;3.06;75.07;99479.31;5047713;28;20465;-81
2021/11/26 02:44:16;;;;;;;46.13;30.03;;;;;;;3.11;75.56;99479.47;5037923;28;20785;-81
2021/11/26 02:46:42;;;;;;;45.33;27.93;;;;;;;3.10;75.73;99481.31;5037351;28;20428;-82
2021/11/26 02:49:08;;;;;;;49.13;30.67;;;;;;;3.15;75.30;99477.97;5030855;28;20400;-81
2021/11/26 02:51:34;;;;;;;46.77;30.50;;;;;;;3.19;75.32;99471.16;5030708;28;20406;-81
2021/11/26 02:54:00;;;;;;;45.33;28.30;;;;;;;3.17;75.93;99467.84;5039131;28;20431;-81
2021/11/26 02:56:26;;;;;;;46.23;29.17;;;;;;;3.16;75.95;99471.59;5037839;28;20693;-82
2021/11/26 02:58:52;;;;;;;47.92;29.13;;;;;;;3.12;76.25;99467.72;5046118;28;20874;-82
2021/11/26 03:01:17;;;;;;;45.75;28.33;;;;;;;3.09;76.15;99465.47;5035848;28;20498;-81
2021/11/26 03:03:42;;;;;;;43.93;27.97;;;;;;;3.05;76.25;99466.97;5035535;28;20401;-81
2021/11/26 03:06:07;;;;;;;47.87;29.00;;;;;;;3.04;76.68;99460.78;5071175;28;20912;-81
2021/11/26 03:08:34;;;;;;;43.23;28.60;;;;;;;3.08;76.83;99456.63;5039786;28;20443;-82
2021/11/26 03:11:00;;;;;;;44.83;29.00;;;;;;;3.10;76.27;99453.72;5035583;28;20405;-82
2021/11/26 03:13:26;;;;;;;43.10;27.58;;;;;;;3.18;76.52;99449.94;5033247;28;20482;-82
2021/11/26 03:15:52;;;;;;;46.17;28.00;;;;;;;3.26;75.55;99452.34;5041342;28;20477;-81
2021/11/26 03:18:19;;;;;;;47.30;28.55;;;;;;;3.27;75.32;99445.94;5044624;28;20465;-81
2021/11/26 03:20:46;;;;;;;45.83;29.05;;;;;;;3.30;74.95;99440.94;5038913;28;20886;-82
2021/11/26 03:23:12;;;;;;;49.03;30.10;;;;;;;3.32;74.66;99443.41;5030903;28;20410;-82
2021/11/26 03:25:40;;;;;;;46.78;30.02;;;;;;;3.29;74.93;99439.34;5038756;28;20399;-81
2021/11/26 03:28:06;;;;;;;49.65;31.10;;;;;;;3.28;74.58;99439.53;5039981;28;20395;-81
2021/11/26 03:30:31;;;;;;;50.70;30.67;;;;;;;3.27;74.67;99430.69;5048528;28;20537;-81
2021/11/26 03:32:56;;;;;;;46.53;30.83;;;;;;;3.24;74.90;99417.75;5046206;28;20425;-82
2021/11/26 03:35:23;;;;;;;42.37;27.97;;;;;;;3.22;75.14;99422.53;5034674;28;20411;-81
2021/11/26 03:37:49;;;;;;;45.65;29.25;;;;;;;3.26;75.23;99410.28;5048682;28;20508;-81
2021/11/26 03:40:18;;;;;;;49.63;29.02;;;;;;;3.28;75.06;99404.72;5037904;28;20518;-81
2021/11/26 03:42:44;;;;;;;50.60;30.33;;;;;;;3.27;75.41;99403.91;5039492;28;20403;-82
2021/11/26 03:45:10;;;;;;;49.42;29.98;;;;;;;3.30;74.77;99400.78;5034778;28;20402;-82
2021/11/26 03:47:36;;;;;;;44.40;27.98;;;;;;;3.26;74.80;99390.75;5048245;28;20934;-81
2021/11/26 03:50:02;;;;;;;50.17;30.23;;;;;;;3.20;75.43;99394.31;5045503;28;20405;-81
2021/11/26 03:52:29;;;;;;;52.20;31.15;;;;;;;3.19;75.36;99388.16;5039617;28;20402;-81
2021/11/26 03:54:54;;;;;;;47.58;30.52;;;;;;;3.19;75.60;99390.00;5043591;28;20880;-82
2021/11/26 03:57:19;;;;;;;47.50;29.77;;;;;;;3.16;75.88;99387.78;5041431;28;20505;-81
2021/11/26 03:59:44;;;;;;;52.10;30.50;;;;;;;3.18;75.63;99385.69;5040283;28;20819;-82
2021/11/26 04:02:10;;;;;;;48.40;29.83;;;;;;;3.13;75.87;99376.47;5034302;28;20455;-81
2021/11/26 04:04:36;;;;;;;46.60;29.98;;;;;;;3.20;75.50;99376.38;5035936;28;20422;-81
2021/11/26 04:07:01;;;;;;;48.30;29.85;;;;;;;3.22;76.02;99378.84;5039433;28;20399;-81
2021/11/26 04:09:27;;;;;;;50.83;30.73;;;;;;;3.20;76.15;99371.03;5042226;28;20540;-81
2021/11/26 04:11:52;;;;;;;48.00;30.00;;;;;;;3.14;76.17;99374.59;5042248;28;20462;-81
2021/11/26 04:14:17;;;;;;;46.47;29.07;;;;;;;3.14;75.58;99370.06;5045528;28;21037;-82
2021/11/26 04:16:45;;;;;;;48.50;30.07;;;;;;;3.14;75.45;99371.94;5048702;28;20409;-82
2021/11/26 04:19:10;;;;;;;50.30;29.77;;;;;;;3.19;74.82;99365.91;5037397;28;20421;-81
2021/11/26 04:21:36;;;;;;;45.33;30.13;;;;;;;3.18;74.86;99358.91;5036625;28;20490;-81
2021/11/26 04:24:02;;;;;;;44.83;29.03;;;;;;;3.09;75.30;99353.88;5039749;28;20401;-81
2021/11/26 04:26:28;;;;;;;46.97;30.87;;;;;;;3.02;75.84;99349.63;5043625;28;20476;-82
2021/11/26 04:28:54;;;;;;;46.97;29.73;;;;;;;3.00;76.12;99352.53;5039800;28;20913;-82
2021/11/26 04:31:19;;;;;;;49.77;31.00;;;;;;;2.95;76.20;99356.91;5035026;28;20399;-82
2021/11/26 04:33:44;;;;;;;46.15;29.55;;;;;;;2.94;76.23;99360.63;5039028;28;20418;-82
2021/11/26 04:36:10;;;;;;;48.57;30.20;;;;;;;2.87;76.53;99360.69;5048967;28;20834;-81
2021/11/26 04:38:35;;;;;;;46.87;29.93;;;;;;;2.86;76.63;99356.41;5031205;28;20425;-81
2021/11/26 04:41:00;;;;;;;45.03;29.20;;;;;;;2.91;76.35;99345.84;5032352;28;20399;-81
2021/11/26 04:43:26;;;;;;;50.23;29.67;;;;;;;3.03;76.58;99343.25;5039377;28;20401;-82
2021/11/26 04:45:52;;;;;;;46.67;29.97;;;;;;;3.07;76.10;99339.06;5047244;28;20428;-82
2021/11/26 04:48:21;;;;;;;48.90;29.95;;;;;;;3.11;75.58;99341.09;5034080;28;20478;-82
2021/11/26 04:50:47;;;;;;;47.13;29.60;;;;;;;3.13;75.30;99330.13;5036967;28;20410;-81
2021/11/26 04:53:13;;;;;;;47.83;30.40;;;;;;;3.11;75.26;99327.69;5036420;28;20394;-82
2021/11/26 04:55:38;;;;;;;55.53;33.22;;;;;;;3.06;75.52;99322.19;5040665;28;20401;-82
2021/11/26 04:58:04;;;;;;;53.55;33.03;;;;;;;3.05;75.65;99323.25;5036879;28;20414;-81
2021/11/26 05:00:29;;;;;;;54.67;31.83;;;;;;;3.04;75.87;99320.78;5042733;28;20389;-82
2021/11/26 05:02:55;;;;;;;52.97;32.90;;;;;;;2.98;76.01;99325.19;5033934;28;20887;-81
2021/11/26 05:05:20;;;;;;;53.17;33.23;;;;;;;2.94;76.24;99317.81;5034612;28;20397;-82
2021/11/26 05:07:46;;;;;;;50.60;31.10;;;;;;;3.03;76.01;99316.50;5039903;28;20391;-81
2021/11/26 05:10:14;;;;;;;49.72;31.77;;;;;;;3.08;75.82;99312.09;5039655;28;20762;-82
2021/11/26 05:12:46;;;;;;;55.20;35.08;;;;;;;3.08;75.62;99317.44;5047453;28;20408;-82
2021/11/26 05:15:11;;;;;;;50.35;31.88;;;;;;;3.03;76.02;99314.59;5037252;28;20385;-81
2021/11/26 05:17:36;;;;;;;50.28;32.30;;;;;;;2.96;76.12;99313.88;5044468;28;20411;-82
2021/11/26 05:20:02;;;;;;;51.07;31.20;;;;;;;2.98;75.90;99316.31;5039517;28;20399;-82
2021/11/26 05:22:28;;;;;;;49.30;29.35;;;;;;;2.95;76.08;99312.25;5046673;28;20395;-82
2021/11/26 05:24:53;;;;;;;46.27;30.43;;;;;;;3.00;75.98;99319.59;5045905;28;20437;-82
2021/11/26 05:27:18;;;;;;;47.27;30.83;;;;;;;3.02;76.05;99323.69;5047841;28;20403;-82
2021/11/26 05:29:44;;;;;;;48.87;30.90;;;;;;;3.01;76.07;99313.19;5049952;28;20396;-81
2021/11/26 05:32:10;;;;;;;50.13;30.87;;;;;;;2.97;76.02;99320.84;5036471;28;20434;-82
2021/11/26 05:34:35;;;;;;;50.15;32.38;;;;;;;2.96;76.19;99321.91;5054637;28;20875;-80
2021/11/26 05:37:01;;;;;;;48.38;31.48;;;;;;;3.01;75.98;99318.56;5057932;28;20549;-81
2021/11/26 05:39:26;;;;;;;49.85;30.58;;;;;;;3.07;76.02;99323.81;5032540;28;20893;-81
2021/11/26 05:41:51;;;;;;;53.00;32.20;;;;;;;3.13;75.11;99319.44;5032858;28;20500;-81
2021/11/26 05:44:17;;;;;;;49.00;30.93;;;;;;;3.13;75.07;99308.72;5033864;28;20417;-81
2021/11/26 05:46:42;;;;;;;51.40;32.20;;;;;;;3.11;75.34;99297.44;5044735;28;20409;-81
2021/11/26 05:49:07;;;;;;;47.40;29.97;;;;;;;3.08;75.55;99296.03;5032460;28;20406;-81
2021/11/26 05:51:33;;;;;;;48.53;29.67;;;;;;;3.05;75.03;99307.19;5041215;28;20462;-81
2021/11/26 05:53:58;;;;;;;47.27;30.27;;;;;;;3.08;74.90;99293.34;5044555;28;20409;-82
2021/11/26 05:56:23;;;;;;;49.10;30.93;;;;;;;3.09;75.06;99296.84;5037899;28;20927;-82
2021/11/26 05:58:49;;;;;;;52.92;33.35;;;;;;;2.89;75.81;99293.59;5031582;28;20886;-81
2021/11/26 06:01:14;;;;;;;52.07;32.07;;;;;;;2.88;75.85;99287.41;5050726;28;20437;-81
2021/11/26 06:03:39;;;;;;;51.07;33.27;;;;;;;2.89;75.90;99285.56;5035838;28;20474;-81
2021/11/26 06:06:05;;;;;;;53.40;34.13;;;;;;;2.93;76.15;99284.09;5043473;28;20510;-83
2021/11/26 06:08:30;;;;;;;53.78;32.50;;;;;;;2.84;75.91;99280.88;5040068;28;20448;-81
2021/11/26 06:10:55;;;;;;;47.50;30.73;;;;;;;2.91;75.77;99273.59;5051082;28;20868;-81
2021/11/26 06:13:21;;;;;;;47.80;30.27;;;;;;;2.97;75.56;99272.69;5031923;28;20406;-81
2021/11/26 06:15:46;;;;;;;48.47;31.10;;;;;;;2.97;75.93;99279.88;5046532;28;20793;-81
2021/11/26 06:18:12;;;;;;;50.90;32.30;;;;;;;2.93;75.67;99273.38;5039327;28;20894;-83
2021/11/26 06:20:37;;;;;;;52.08;31.90;;;;;;;2.92;75.97;99275.22;5040302;28;20405;-81
2021/11/26 06:23:03;;;;;;;52.67;32.03;;;;;;;2.96;75.72;99271.06;5039342;28;20407;-83
2021/11/26 06:25:28;;;;;;;51.37;31.93;;;;;;;2.98;76.00;99268.97;5038059;28;20426;-83
2021/11/26 06:27:53;;;;;;;51.97;32.50;;;;;;;3.01;76.01;99271.19;5050699;28;20416;-83
2021/11/26 06:30:21;;;;;;;48.30;31.48;;;;;;;3.05;75.59;99268.91;5034819;28;20887;-82
2021/11/26 06:32:48;;;;;;;54.33;33.50;;;;;;;2.99;75.74;99267.94;5054061;28;20753;-80
2021/11/26 06:35:16;;;;;;;51.20;31.83;;;;;;;2.99;75.73;99267.13;5043673;28;20463;-82
2021/11/26 06:37:41;;;;;;;53.60;34.63;;;;;;;3.00;75.78;99260.72;5063321;28;20761;-82
2021/11/26 06:40:08;;;;;;;57.30;36.50;;;;;;;3.00;75.76;99253.50;5040382;28;20390;-82
2021/11/26 06:45:29;;;;;;;61.25;36.08;;;;;;;3.00;76.03;99256.19;5035056;28;20392;-82
2021/11/26 06:47:55;;;;;;;63.42;37.28;;;;;;;3.04;75.84;99245.84;5043422;28;20981;-82
2021/11/26 06:50:20;;;;;;;52.63;32.47;;;;;;;2.99;76.00;99246.53;5035556;28;20477;-82
2021/11/26 06:52:46;;;;;;;55.53;32.10;;;;;;;3.02;75.45;99243.41;5048001;28;20522;-83
2021/11/26 06:55:15;;;;;;;54.83;33.60;;;;;;;3.02;75.42;99239.91;5045182;28;20448;-82
2021/11/26 06:57:44;;;;;;;52.20;33.78;;;;;;;3.05;75.57;99240.28;5039747;28;20977;-82
2021/11/26 07:00:16;;;;;;;51.17;33.33;;;;;;;3.03;75.96;99238.88;5040059;28;20450;-82
2021/11/26 07:02:41;;;;;;;52.65;33.80;;;;;;;3.01;75.77;99232.91;5030095;28;20420;-82
2021/11/26 07:05:07;;;;;;;55.33;33.93;;;;;;;3.00;75.20;99234.75;5039238;28;20387;-82
2021/11/26 07:07:33;;;;;;;53.22;33.63;;;;;;;2.96;75.98;99227.44;5045158;28;20403;-82
2021/11/26 07:10:16;;;;;;;52.03;32.93;;;;;;;3.00;75.67;99229.41;5041311;28;20397;-82
2021/11/26 07:12:45;;;;;;;53.25;33.55;;;;;;;3.04;75.34;99213.72;5032578;28;20464;-82
2021/11/26 07:15:14;;;;;;;53.97;33.65;;;;;;;3.00;75.44;99212.53;5039412;28;20520;-81
2021/11/26 07:17:47;;;;;;;56.47;33.38;;;;;;;2.95;75.32;99207.06;5064693;28;20415;-82
2021/11/26 07:20:19;;;;;;;54.53;33.90;;;;;;;3.00;75.67;99216.03;5033795;28;20437;-81
2021/11/26 07:22:44;;;;;;;51.30;33.47;;;;;;;3.06;75.59;99204.41;5035634;28;20390;-82
2021/11/26 07:25:10;;;;;;;50.83;32.90;;;;;;;3.06;75.42;99204.41;5043840;28;20419;-83
2021/11/26 07:27:42;;;;;;;55.47;34.70;;;;;;;3.08;75.42;99206.88;5043016;28;20727;-82
2021/11/26 07:30:09;;;;;;;51.27;33.20;;;;;;;3.13;75.57;99193.63;5041246;28;20427;-82
2021/11/26 07:32:34;;;;;;;51.83;33.40;;;;;;;3.08;75.30;99188.97;5035173;28;20531;-83
2021/11/26 07:35:07;;;;;;;52.03;33.30;;;;;;;3.13;75.30;99185.59;5055355;28;20525;-82
2021/11/26 07:37:36;;;;;;;52.20;33.38;;;;;;;3.24;75.01;99179.47;5039327;28;20423;-82
2021/11/26 07:40:04;;;;;;;53.63;32.45;;;;;;;3.36;75.31;99174.94;5041326;28;20396;-82
2021/11/26 07:42:30;;;;;;;52.40;32.47;;;;;;;3.41;74.64;99184.97;5035609;28;20390;-81
2021/11/26 07:44:55;;;;;;;54.27;34.13;;;;;;;3.40;74.91;99169.94;5050748;28;20448;-82
2021/11/26 07:47:20;;;;;;;52.07;32.53;;;;;;;3.41;74.74;99174.28;5057175;28;20416;-81
2021/11/26 07:49:46;;;;;;;54.90;33.07;;;;;;;3.44;74.76;99157.75;5054084;28;20400;-82
2021/11/26 07:52:12;;;;;;;51.47;31.75;;;;;;;3.42;74.66;99158.00;5052510;28;20413;-82
2021/11/26 07:54:38;;;;;;;54.75;34.53;;;;;;;3.44;74.80;99161.25;5047483;28;20399;-81
2021/11/26 07:57:04;;;;;;;51.60;33.85;;;;;;;3.48;73.70;99158.91;5036284;28;20496;-82
2021/11/26 07:59:29;;;;;;;55.60;33.50;;;;;;;3.45;73.71;99154.03;5040755;28;20904;-81
2021/11/26 08:01:55;;;;;;;53.13;33.45;;;;;;;3.47;73.87;99155.41;5033299;28;20407;-81
2021/11/26 08:04:21;;;;;;;54.55;34.30;;;;;;;3.53;74.28;99151.00;5035885;28;20454;-81
2021/11/26 08:06:47;;;;;;;54.53;34.40;;;;;;;3.50;74.09;99151.47;5029146;28;20406;-81
2021/11/26 08:09:14;;;;;;;53.17;34.65;;;;;;;3.53;74.09;99142.97;5034025;28;20406;-80
2021/11/26 08:11:40;;;;;;;56.58;34.33;;;;;;;3.50;73.92;99148.78;5044496;28;20480;-81
2021/11/26 08:14:06;;;;;;;58.70;35.70;;;;;;;3.43;74.35;99148.06;5038498;28;20481;-81
2021/11/26 08:16:32;;;;;;;54.03;34.28;;;;;;;3.49;74.91;99142.59;5044549;28;20774;-81
2021/11/26 08:18:57;;;;;;;54.60;35.50;;;;;;;3.48;74.20;99130.28;5034286;28;20461;-81
2021/11/26 08:21:22;;;;;;;58.05;35.88;;;;;;;3.53;73.85;99129.56;5047282;28;20857;-81
2021/11/26 08:23:48;;;;;;;58.00;35.10;;;;;;;3.44;74.81;99123.75;5045752;28;20725;-81
2021/11/26 08:26:13;;;;;;;54.93;34.57;;;;;;;3.44;74.55;99122.94;5048075;28;20911;-80
2021/11/26 08:28:39;;;;;;;49.50;32.93;;;;;;;3.54;73.81;99113.28;5037390;28;20412;-81
2021/11/26 08:31:05;;;;;;;56.93;35.30;;;;;;;3.51;73.76;99110.25;5033800;28;20460;-81
2021/11/26 08:33:30;;;;;;;47.30;30.98;;;;;;;3.39;73.42;99106.75;5053340;28;20490;-81
2021/11/26 08:35:57;;;;;;;54.30;31.53;;;;;;;3.40;73.53;99103.00;5068470;28;20546;-81
2021/11/26 08:38:25;;;;;;;52.13;32.08;;;;;;;3.48;73.18;99102.69;5033691;28;20890;-82
2021/11/26 08:40:50;;;;;;;46.20;32.00;;;;;;;3.56;73.06;99113.03;5047657;28;20414;-81
2021/11/26 08:43:16;;;;;;;47.17;29.57;;;;;;;3.51;73.33;99102.22;5034511;28;20478;-81
2021/11/26 08:45:42;;;;;;;51.07;30.53;;;;;;;3.43;73.08;99105.22;5038478;28;20441;-81
2021/11/26 08:48:07;;;;;;;46.70;28.43;;;;;;;3.38;73.08;99108.59;5046901;28;20405;-81
2021/11/26 08:50:34;;;;;;;49.47;32.03;;;;;;;3.49;72.85;99105.09;5033380;28;20407;-81
2021/11/26 08:53:02;;;;;;;39.33;26.55;;;;;;;3.50;72.74;99103.25;5048360;28;20394;-81
2021/11/26 08:55:27;;;;;;;41.97;27.30;;;;;;;3.51;72.17;99105.72;5034839;28;20486;-81
2021/11/26 08:57:54;;;;;;;43.50;28.65;;;;;;;3.49;72.22;99094.38;5033080;28;20495;-81
2021/11/26 09:00:25;;;;;;;39.63;27.52;;;;;;;3.63;72.07;99101.16;5043858;28;20411;-81
2021/11/26 09:02:51;;;;;;;43.03;28.88;;;;;;;3.56;72.21;99097.78;5051726;28;20393;-81
2021/11/26 09:05:16;;;;;;;40.43;26.63;;;;;;;3.48;72.35;99091.97;5049106;28;20388;-81
2021/11/26 09:07:44;;;;;;;42.28;28.10;;;;;;;3.60;71.84;99095.44;5041378;28;20409;-82
2021/11/26 09:10:10;;;;;;;44.97;29.60;;;;;;;3.69;71.81;99090.56;5033292;28;20403;-81
2021/11/26 09:12:35;;;;;;;45.70;29.70;;;;;;;3.81;70.68;99094.06;5044229;28;20391;-81
2021/11/26 09:15:01;;;;;;;46.90;29.23;;;;;;;3.98;70.17;99081.56;5044865;28;20403;-81
2021/11/26 09:17:26;;;;;;;43.77;29.37;;;;;;;3.98;70.05;99084.25;5042112;28;20408;-81
2021/11/26 09:19:52;;;;;;;45.40;28.67;;;;;;;3.90;70.96;99079.25;5068945;28;20727;-81
2021/11/26 09:22:17;;;;;;;41.65;28.65;;;;;;;3.84;70.96;99089.03;5043942;28;20443;-81
2021/11/26 09:24:43;;;;;;;42.85;29.48;;;;;;;3.74;71.56;99088.00;5041371;28;20785;-81
2021/11/26 09:27:08;;;;;;;47.17;30.30;;;;;;;3.86;71.51;99086.13;5040725;28;20409;-82
2021/11/26 09:29:34;;;;;;;44.07;29.63;;;;;;;3.80;71.45;99087.06;5039701;28;20452;-81
2021/11/26 09:32:01;;;;;;;38.13;26.73;;;;;;;3.91;70.75;99079.03;5048242;28;20896;-81
2021/11/26 09:34:26;;;;;;;49.40;31.27;;;;;;;3.92;70.70;99090.56;5035206;28;20428;-80
2021/11/26 09:36:52;;;;;;;48.13;29.97;;;;;;;3.84;71.69;99083.69;5038548;28;20451;-82
2021/11/26 09:39:18;;;;;;;45.00;29.35;;;;;;;3.93;71.08;99092.16;5041045;28;20413;-81
2021/11/26 09:41:44;;;;;;;48.40;30.40;;;;;;;4.11;70.79;99079.47;5032665;28;20403;-81
2021/11/26 09:44:12;;;;;;;48.77;29.70;;;;;;;4.22;70.44;99074.28;5045111;28;20407;-81
2021/11/26 09:46:39;;;;;;;50.85;30.85;;;;;;;4.24;70.78;99070.31;5045974;28;20399;-81
2021/11/26 09:49:05;;;;;;;54.13;30.35;;;;;;;3.98;71.30;99076.22;5033253;28;20399;-81
2021/11/26 09:51:34;;;;;;;47.22;28.33;;;;;;;3.86;71.99;99073.53;5035089;28;20407;-81
2021/11/26 09:54:00;;;;;;;41.67;28.10;;;;;;;3.93;71.75;99068.88;5039781;28;20810;-82
2021/11/26 09:56:25;;;;;;;51.80;31.58;;;;;;;4.04;71.50;99061.88;5035212;28;20442;-81
2021/11/26 09:58:51;;;;;;;49.47;30.80;;;;;;;4.09;71.52;99056.59;5041874;28;20449;-82
2021/11/26 10:01:16;;;;;;;43.70;29.80;;;;;;;4.22;71.16;99052.81;5045975;28;20405;-81
2021/11/26 10:03:47;;;;;;;46.30;31.43;;;;;;;4.23;71.03;99049.91;5036098;28;20468;-81
2021/11/26 10:06:37;;;;;;;54.47;32.65;;;;;;;4.35;70.87;99044.50;5044542;28;20415;-81
2021/11/26 10:09:09;;;;;;;48.55;31.95;;;;;;;4.35;70.56;99039.97;5030923;28;20810;-81
2021/11/26 10:11:44;;;;;;;57.08;32.58;;;;;;;4.29;70.90;99035.56;5034808;28;20912;-81
2021/11/26 10:14:20;;;;;;;55.05;32.78;;;;;;;4.30;71.17;99029.16;5031804;28;20926;-81
2021/11/26 10:16:54;;;;;;;53.83;32.05;;;;;;;4.34;71.03;99024.13;5039774;28;20420;-81
2021/11/26 10:19:50;;;;;;;41.20;27.75;;;;;;;4.31;70.34;99017.38;5048028;28;20405;-81
2021/11/26 10:22:19;;;;;;;45.63;28.27;;;;;;;4.31;70.15;99012.00;5040337;28;20401;-81
2021/11/26 10:25:11;;;;;;;41.45;27.55;;;;;;;4.36;69.96;99006.72;5041867;28;20404;-81
2021/11/26 10:27:44;;;;;;;46.47;28.75;;;;;;;4.35;70.30;98998.91;5035671;28;20399;-81
2021/11/26 10:30:19;;;;;;;50.97;31.65;;;;;;;4.31;70.89;98992.41;5040826;28;20414;-81
2021/11/26 10:33:04;;;;;;;45.65;29.73;;;;;;;4.38;70.68;98988.50;5037970;28;20398;-82
2021/11/26 10:35:40;;;;;;;43.58;29.25;;;;;;;4.52;70.25;98986.34;5034670;28;20919;-81
2021/11/26 10:38:15;;;;;;;45.17;29.92;;;;;;;4.61;70.13;98974.19;5042119;28;20947;-81
2021/11/26 10:40:49;;;;;;;51.83;33.70;;;;;;;4.64;70.07;98976.38;5032593;28;20404;-81
2021/11/26 10:43:18;;;;;;;40.15;27.10;;;;;;;4.68;69.28;98969.47;5047891;28;20418;-81
2021/11/26 10:59:01;;;;;;;40.83;26.92;;;;;;;4.64;69.37;98923.53;5038146;28;20481;-82
2021/11/26 11:01:26;;;;;;;40.95;27.42;;;;;;;4.68;68.63;98921.97;5031947;28;20410;-80
2021/11/26 11:03:53;;;;;;;42.10;28.97;;;;;;;4.60;68.94;98919.72;5042119;28;20389;-82
2021/11/26 11:06:19;;;;;;;47.05;29.73;;;;;;;4.46;69.72;98914.91;5036420;28;20379;-82
2021/11/26 11:08:46;;;;;;;43.13;28.52;;;;;;;4.50;69.27;98908.00;5031229;28;20406;-82
2021/11/26 11:11:11;;;;;;;45.40;28.77;;;;;;;4.50;69.68;98914.19;5043060;28;20396;-82
2021/11/26 11:13:37;;;;;;;45.53;30.00;;;;;;;4.46;69.79;98901.50;5047105;28;20409;-81
2021/11/26 11:16:08;;;;;;;45.87;29.00;;;;;;;4.37;70.64;98898.41;5040818;28;20418;-82
2021/11/26 11:18:33;;;;;;;44.65;28.92;;;;;;;4.43;70.78;98899.28;5040457;28;20425;-82
2021/11/26 11:20:59;;;;;;;41.30;28.55;;;;;;;4.52;69.42;98882.56;5033168;28;20766;-81
2021/11/26 11:23:25;;;;;;;44.85;29.05;;;;;;;4.67;69.25;98890.84;5043259;28;20407;-82
2021/11/26 11:25:51;;;;;;;46.33;29.67;;;;;;;4.79;69.07;98882.69;5040846;28;20476;-82
2021/11/26 11:28:16;;;;;;;39.47;25.10;;;;;;;4.90;68.85;98879.13;5031277;28;20403;-82
2021/11/26 11:30:42;;;;;;;41.40;27.60;;;;;;;4.94;68.24;98874.88;5036458;28;20398;-80
2021/11/26 11:33:09;;;;;;;40.83;27.20;;;;;;;4.79;69.31;98874.66;5031511;28;20411;-80
2021/11/26 11:35:38;;;;;;;47.85;29.65;;;;;;;4.86;69.19;98863.75;5033494;28;20407;-81
2021/11/26 11:38:07;;;;;;;39.17;26.80;;;;;;;4.81;69.31;98856.41;5042758;28;20415;-80